Everglades National Park, Florida
Current Conditions -  °F | °C
As of 3:58 AM on Thursday 18 Dec 2014 (Local Time) from KHST Reporting Station
Clear Clear  
Wind Chill: 61°   Ceiling: Unl
Heat Index: 61°   Visibility: 10mi
Dew Point: 53°   Wind: 2mph
Humidity: 77%   Direction: 350°N
Pressure: 30.14"   Gusts: NA
Location:  25.4848°N, 80.5094°W
Report Text: KHST 180858Z AUTO 35002KT 10SM CLR 16/12 A3014 RMK AO2 SLP210 T01590118 57006 $
Loading
Personal Weather Stations






























Interactive Weather Map New forecast layout! Learn more

10-Day Weather Forecast

Advertisements
Track Severe Weather on mobile